Time;durP1;ratioP1;P1;durP2;ratioP2;P2;SDS_P1;SDS_P2;PMS_P1;PMS_P2;Temp;Humidity;BMP_temperature;BMP_pressure;BME280_temperature;BME280_humidity;BME280_pressure;Samples;Min_cycle;Max_cycle;Signal;HPM_P1;HPM_P2
2022/08/18 00:00:55;;;;;;;17.80;15.10;;;;;;;19.69;86.50;100191.48;84633;1329;22573;-72
2022/08/18 00:03:10;;;;;;;18.50;13.10;;;;;;;19.66;86.48;100193.63;84737;1328;22545;-72
2022/08/18 00:05:20;;;;;;;15.20;13.70;;;;;;;19.64;86.74;100194.80;84757;1327;22598;-73
2022/08/18 00:07:31;;;;;;;15.40;13.90;;;;;;;19.62;86.79;100196.40;84741;1327;24090;-73
2022/08/18 00:09:40;;;;;;;14.60;13.20;;;;;;;19.59;86.67;100195.23;84757;1327;22601;-73
2022/08/18 00:11:49;;;;;;;15.90;14.00;;;;;;;19.55;86.60;100191.42;84736;1326;22590;-72
2022/08/18 00:13:58;;;;;;;20.40;14.90;;;;;;;19.51;86.40;100195.25;84742;1326;22668;-71
2022/08/18 00:16:08;;;;;;;15.60;14.00;;;;;;;19.47;86.57;100200.77;84808;1328;22580;-70
2022/08/18 00:18:16;;;;;;;16.40;13.50;;;;;;;19.43;86.60;100203.16;84731;1326;22621;-70
2022/08/18 00:20:26;;;;;;;22.50;14.00;;;;;;;19.40;86.84;100210.65;84698;1327;25448;-71
2022/08/18 00:22:35;;;;;;;15.50;14.10;;;;;;;19.37;86.70;100212.85;84683;1331;22679;-71
2022/08/18 00:24:44;;;;;;;20.60;15.00;;;;;;;19.35;86.97;100216.34;84618;1329;22716;-71
2022/08/18 00:26:53;;;;;;;15.10;13.60;;;;;;;19.32;86.89;100216.73;84687;1321;22622;-71
2022/08/18 00:29:02;;;;;;;15.60;14.20;;;;;;;19.30;87.17;100229.45;84666;1327;25596;-73
2022/08/18 00:31:11;;;;;;;14.80;13.30;;;;;;;19.29;87.02;100233.10;84672;1330;22727;-72
2022/08/18 00:33:20;;;;;;;19.20;13.70;;;;;;;19.25;86.89;100232.52;84682;1327;24264;-72
2022/08/18 00:35:31;;;;;;;14.70;13.40;;;;;;;19.21;86.91;100234.59;84689;1321;22521;-72
2022/08/18 00:37:39;;;;;;;16.90;13.90;;;;;;;19.17;87.04;100240.89;84631;1329;22588;-73
2022/08/18 00:39:48;;;;;;;16.20;14.60;;;;;;;19.16;87.29;100242.42;84678;1331;22585;-73
2022/08/18 00:41:57;;;;;;;16.30;13.00;;;;;;;19.14;87.50;100248.52;84693;1329;24274;-71
2022/08/18 00:44:06;;;;;;;16.80;15.10;;;;;;;19.13;87.63;100252.52;84666;1330;24164;-72
2022/08/18 00:46:17;;;;;;;16.10;14.00;;;;;;;19.11;87.67;100251.83;84690;1330;22586;-73
2022/08/18 00:48:26;;;;;;;16.20;14.70;;;;;;;19.07;87.80;100254.51;84675;1327;22603;-73
2022/08/18 00:50:38;;;;;;;16.90;14.70;;;;;;;19.07;87.62;100258.61;84678;1330;24264;-71
2022/08/18 00:52:50;;;;;;;14.30;13.00;;;;;;;19.04;87.56;100259.72;84637;1329;25448;-71
2022/08/18 00:54:58;;;;;;;21.80;15.00;;;;;;;19.02;87.73;100257.21;84661;1332;22613;-71
2022/08/18 00:57:08;;;;;;;18.20;15.20;;;;;;;19.00;87.68;100257.01;84694;1332;23048;-72
2022/08/18 00:59:21;;;;;;;16.40;14.60;;;;;;;18.98;87.98;100259.85;84658;1332;22732;-71
2022/08/18 01:01:31;;;;;;;16.10;13.90;;;;;;;18.96;87.95;100257.99;84687;1329;25522;-73
2022/08/18 01:03:40;;;;;;;15.00;13.70;;;;;;;18.97;88.07;100257.09;84688;1328;25944;-73
2022/08/18 01:05:53;;;;;;;15.90;14.00;;;;;;;18.95;87.85;100254.35;84694;1327;24065;-70
2022/08/18 01:08:03;;;;;;;17.10;13.70;;;;;;;18.94;88.00;100258.69;84672;1328;22611;-72
2022/08/18 01:10:15;;;;;;;16.20;14.60;;;;;;;18.94;87.86;100263.15;84679;1329;24262;-70
2022/08/18 01:12:23;;;;;;;15.20;13.60;;;;;;;18.92;87.97;100269.64;84697;1331;25313;-73
2022/08/18 01:14:32;;;;;;;16.70;14.90;;;;;;;18.90;88.03;100268.20;84640;1330;22605;-70
2022/08/18 01:21:50;;;;;;;16.80;13.50;;;;;;;18.80;88.33;100284.34;84669;1321;22615;-72
2022/08/18 01:23:59;;;;;;;15.10;13.80;;;;;;;18.75;88.17;100286.11;84707;1327;22590;-73
2022/08/18 01:26:08;;;;;;;16.60;14.80;;;;;;;18.72;88.29;100284.75;84704;1325;22596;-72
2022/08/18 01:28:18;;;;;;;18.60;13.50;;;;;;;18.71;88.44;100281.84;84645;1330;22607;-72
2022/08/18 01:30:27;;;;;;;21.00;14.50;;;;;;;18.68;88.13;100283.93;84622;1328;22601;-72
2022/08/18 01:32:36;;;;;;;18.00;13.70;;;;;;;18.66;88.58;100281.41;84682;1329;22674;-73
2022/08/18 01:34:46;;;;;;;16.60;14.90;;;;;;;18.65;88.64;100286.29;84676;1327;22609;-72
2022/08/18 01:36:55;;;;;;;17.10;15.10;;;;;;;18.63;88.75;100288.38;84688;1328;22593;-72
2022/08/18 01:39:06;;;;;;;15.00;13.40;;;;;;;18.62;88.82;100288.30;84646;1329;22879;-72
2022/08/18 01:41:15;;;;;;;16.70;15.10;;;;;;;18.60;88.80;100288.61;84668;1329;22599;-72
2022/08/18 01:43:24;;;;;;;16.40;14.90;;;;;;;18.57;88.85;100289.13;84654;1330;22739;-73
2022/08/18 01:45:34;;;;;;;16.40;14.70;;;;;;;18.56;88.80;100293.84;84694;1328;22742;-71
2022/08/18 01:47:43;;;;;;;16.80;15.10;;;;;;;18.54;88.80;100296.77;84655;1332;25429;-72
2022/08/18 01:49:52;;;;;;;15.70;14.10;;;;;;;18.51;88.77;100295.06;84682;1325;22618;-72
2022/08/18 01:52:01;;;;;;;17.10;14.80;;;;;;;18.49;88.89;100300.16;84685;1325;25534;-72
2022/08/18 01:54:11;;;;;;;15.90;14.40;;;;;;;18.46;88.85;100302.12;84645;1330;25451;-71
2022/08/18 01:56:20;;;;;;;15.40;13.80;;;;;;;18.43;88.70;100302.54;84706;1332;22841;-71
2022/08/18 01:58:29;;;;;;;15.70;14.30;;;;;;;18.41;88.87;100300.38;84705;1327;22601;-71
2022/08/18 02:00:37;;;;;;;17.40;14.50;;;;;;;18.39;89.02;100296.44;84680;1329;24292;-73
2022/08/18 02:02:46;;;;;;;15.90;14.40;;;;;;;18.38;89.13;100294.59;84716;1328;22602;-73
2022/08/18 02:04:57;;;;;;;19.60;15.30;;;;;;;18.37;89.25;100290.42;84724;1330;22708;-73
2022/08/18 02:07:10;;;;;;;19.30;14.40;;;;;;;18.35;88.95;100288.06;84713;1321;24216;-73
2022/08/18 02:09:18;;;;;;;18.30;14.40;;;;;;;18.34;89.36;100286.98;84706;1328;22582;-72
2022/08/18 02:11:27;;;;;;;15.90;14.50;;;;;;;18.32;89.57;100286.91;84715;1328;24227;-72
2022/08/18 02:13:36;;;;;;;15.50;13.90;;;;;;;18.31;89.66;100284.98;84692;1329;22603;-72
2022/08/18 02:15:44;;;;;;;17.80;14.10;;;;;;;18.31;89.62;100285.92;84715;1330;25001;-71
2022/08/18 02:17:53;;;;;;;17.00;14.10;;;;;;;18.30;89.41;100293.23;84705;1328;22581;-72
2022/08/18 02:20:02;;;;;;;15.80;13.90;;;;;;;18.28;89.56;100297.76;84697;1328;24004;-71
2022/08/18 02:22:12;;;;;;;15.20;13.70;;;;;;;18.27;89.62;100296.09;84745;1321;22864;-72
2022/08/18 02:24:20;;;;;;;17.60;15.00;;;;;;;18.26;89.65;100295.80;84741;1329;22588;-72
2022/08/18 02:26:29;;;;;;;16.90;15.30;;;;;;;18.24;89.76;100292.59;84719;1328;22700;-72
2022/08/18 02:28:38;;;;;;;16.10;14.50;;;;;;;18.23;89.76;100294.77;84721;1325;22546;-73
2022/08/18 02:30:47;;;;;;;22.00;14.60;;;;;;;18.20;89.54;100294.65;84693;1330;22583;-71
2022/08/18 02:32:57;;;;;;;25.20;14.30;;;;;;;18.18;89.37;100295.72;84687;1330;23464;-72
2022/08/18 02:35:07;;;;;;;16.30;14.80;;;;;;;18.16;89.44;100296.52;84282;1329;557651;-71
2022/08/18 02:37:15;;;;;;;18.20;15.10;;;;;;;18.14;89.58;100291.92;84721;1329;23154;-72
2022/08/18 02:39:24;;;;;;;18.00;14.90;;;;;;;18.10;89.49;100290.95;84707;1329;22757;-72
2022/08/18 02:41:32;;;;;;;16.10;14.50;;;;;;;18.05;89.55;100294.33;84694;1329;22594;-72
2022/08/18 02:43:42;;;;;;;16.40;14.80;;;;;;;18.02;89.56;100292.35;84678;1329;22602;-73
2022/08/18 02:45:51;;;;;;;16.50;14.90;;;;;;;18.01;89.70;100292.41;84678;1330;22590;-72
2022/08/18 02:48:00;;;;;;;18.60;15.90;;;;;;;17.99;89.81;100294.48;84659;1330;22588;-72
2022/08/18 02:50:10;;;;;;;17.00;15.30;;;;;;;17.98;89.86;100294.26;84665;1321;22586;-72
2022/08/18 02:52:19;;;;;;;16.20;14.30;;;;;;;17.96;89.84;100292.12;84666;1329;24228;-72
2022/08/18 02:54:27;;;;;;;14.70;13.10;;;;;;;17.93;89.94;100286.30;84712;1328;22586;-73
2022/08/18 02:56:36;;;;;;;16.80;15.30;;;;;;;17.92;89.96;100284.24;84716;1327;22599;-72
2022/08/18 02:58:45;;;;;;;17.90;16.20;;;;;;;17.91;89.88;100288.76;84706;1328;22591;-73
2022/08/18 03:00:53;;;;;;;16.20;14.60;;;;;;;17.89;90.08;100292.41;84708;1330;22619;-71
2022/08/18 03:03:03;;;;;;;18.00;15.40;;;;;;;17.88;90.32;100294.23;84705;1329;25517;-73
2022/08/18 03:05:12;;;;;;;17.10;15.70;;;;;;;17.88;90.49;100293.39;84716;1327;22873;-73
2022/08/18 03:07:21;;;;;;;19.40;16.60;;;;;;;17.88;90.73;100289.67;84696;1329;22603;-72
2022/08/18 03:09:30;;;;;;;23.70;16.30;;;;;;;17.88;90.90;100289.13;84690;1329;25309;-73
2022/08/18 03:11:39;;;;;;;17.80;16.10;;;;;;;17.88;90.73;100287.18;84681;1325;22611;-73
2022/08/18 03:13:48;;;;;;;16.10;14.50;;;;;;;17.88;90.65;100287.55;84693;1330;22645;-72
2022/08/18 03:15:57;;;;;;;17.80;15.50;;;;;;;17.87;90.64;100286.04;84637;1329;22819;-72
2022/08/18 03:18:05;;;;;;;18.10;16.30;;;;;;;17.85;90.67;100281.21;84700;1329;24279;-72
2022/08/18 03:20:14;;;;;;;18.80;16.80;;;;;;;17.83;90.81;100282.57;84721;1328;22584;-72
2022/08/18 03:22:24;;;;;;;18.80;17.00;;;;;;;17.84;90.99;100282.02;84709;1327;22606;-72
2022/08/18 03:24:33;;;;;;;20.90;17.90;;;;;;;17.83;91.24;100282.06;84686;1329;22615;-72
2022/08/18 03:26:45;;;;;;;18.50;16.60;;;;;;;17.83;91.37;100282.59;84680;1324;22621;-72
2022/08/18 03:28:56;;;;;;;20.30;15.70;;;;;;;17.84;91.24;100287.31;84688;1328;23981;-71
2022/08/18 03:31:05;;;;;;;20.90;17.40;;;;;;;17.84;91.27;100291.01;84692;1328;24145;-73
2022/08/18 03:33:14;;;;;;;19.70;16.60;;;;;;;17.85;91.34;100294.83;84695;1328;22902;-73
2022/08/18 03:35:24;;;;;;;22.40;16.20;;;;;;;17.85;91.36;100290.90;84705;1326;22988;-72
2022/08/18 03:37:33;;;;;;;17.30;15.60;;;;;;;17.85;91.21;100297.28;84720;1324;22946;-72
2022/08/18 03:39:42;;;;;;;19.70;15.70;;;;;;;17.85;91.21;100298.50;84703;1329;25457;-73
2022/08/18 03:41:52;;;;;;;20.50;16.80;;;;;;;17.86;91.43;100299.90;84682;1330;25299;-73
2022/08/18 03:44:01;;;;;;;23.90;15.80;;;;;;;17.86;91.16;100302.14;84711;1326;22932;-73
2022/08/18 03:46:14;;;;;;;20.30;17.10;;;;;;;17.87;91.27;100303.85;84751;1327;23769;-72
2022/08/18 03:48:24;;;;;;;22.30;15.90;;;;;;;17.88;91.56;100305.02;84709;1328;24157;-72
2022/08/18 03:50:33;;;;;;;17.40;15.50;;;;;;;17.90;91.45;100306.99;84713;1328;24069;-72
2022/08/18 03:52:41;;;;;;;19.60;16.30;;;;;;;17.91;91.44;100302.88;84732;1328;22717;-72
2022/08/18 03:54:50;;;;;;;21.80;16.20;;;;;;;17.92;91.46;100299.44;84718;1328;22584;-72
2022/08/18 03:56:59;;;;;;;18.10;15.30;;;;;;;17.94;91.36;100303.20;84724;1325;22597;-71
2022/08/18 03:59:10;;;;;;;20.90;15.10;;;;;;;17.96;91.39;100301.45;84667;1329;25444;-72
2022/08/18 04:01:20;;;;;;;19.80;15.50;;;;;;;17.99;91.37;100302.67;84710;1329;22594;-71
2022/08/18 04:03:27;;;;;;;;;;;;;;;18.00;91.46;100301.67;84719;1325;22843;-71
2022/08/18 04:05:38;;;;;;;20.90;17.50;;;;;;;18.02;91.91;100298.39;84682;1329;22594;-71
2022/08/18 04:07:47;;;;;;;19.70;17.60;;;;;;;18.08;92.01;100303.10;84724;1326;22635;-71
2022/08/18 04:09:56;;;;;;;17.90;15.80;;;;;;;18.13;91.94;100300.95;84687;1325;22856;-71
2022/08/18 04:12:11;;;;;;;18.00;15.60;;;;;;;18.20;92.02;100302.62;84714;1327;22669;-72
2022/08/18 04:14:23;;;;;;;23.20;18.00;;;;;;;18.26;92.33;100297.75;84720;1328;22592;-72
2022/08/18 04:16:35;;;;;;;20.10;17.90;;;;;;;18.31;92.41;100291.38;84713;1331;25239;-73
2022/08/18 04:18:45;;;;;;;18.70;16.80;;;;;;;18.36;92.50;100292.96;84705;1330;22606;-72
2022/08/18 04:20:53;;;;;;;22.90;17.00;;;;;;;18.43;92.65;100291.42;84676;1328;22587;-72
2022/08/18 04:23:02;;;;;;;20.70;17.70;;;;;;;18.52;92.89;100296.27;84734;1328;24327;-73
2022/08/18 04:25:11;;;;;;;19.40;17.40;;;;;;;18.60;93.10;100300.40;84703;1327;22851;-73
2022/08/18 04:27:20;;;;;;;19.90;18.00;;;;;;;18.69;93.21;100303.50;84594;1329;25464;-70
2022/08/18 04:29:29;;;;;;;24.00;19.10;;;;;;;18.77;93.32;100301.13;84697;1327;22793;-72
2022/08/18 04:31:39;;;;;;;25.80;18.80;;;;;;;18.87;93.58;100301.11;84608;1325;24254;-71
2022/08/18 04:33:48;;;;;;;22.40;19.10;;;;;;;18.98;93.62;100302.64;84651;1329;22598;-71
2022/08/18 04:35:56;;;;;;;22.10;17.60;;;;;;;19.08;93.54;100301.16;84736;1327;22637;-71
2022/08/18 04:38:06;;;;;;;20.10;18.00;;;;;;;19.17;93.62;100302.62;84714;1330;24250;-71
2022/08/18 04:40:15;;;;;;;20.00;17.80;;;;;;;19.25;93.52;100306.41;84653;1330;22591;-72
2022/08/18 04:42:24;;;;;;;21.40;19.00;;;;;;;19.37;93.72;100305.52;84649;1329;23899;-72
2022/08/18 04:44:33;;;;;;;18.50;16.70;;;;;;;19.68;94.17;100308.27;84713;1329;22594;-73
2022/08/18 04:46:45;;;;;;;19.00;16.70;;;;;;;20.41;95.80;100308.23;84686;1329;22738;-73
2022/08/18 04:48:55;;;;;;;19.10;15.70;;;;;;;21.41;97.28;100306.96;84679;1329;22610;-72
2022/08/18 04:51:10;;;;;;;17.60;15.10;;;;;;;22.45;96.07;100311.15;84712;1328;25369;-72
2022/08/18 04:55:51;;;;;;;15.40;13.90;;;;;;;24.35;87.87;100303.55;84714;1330;22620;-71
2022/08/18 04:58:00;;;;;;;17.90;13.60;;;;;;;25.17;83.48;100304.02;84662;1325;22652;-71
2022/08/18 05:00:12;;;;;;;14.50;13.00;;;;;;;25.85;79.99;100302.11;84689;1327;22765;-72
2022/08/18 05:02:21;;;;;;;14.80;13.20;;;;;;;26.51;76.53;100307.45;84698;1321;22881;-71
2022/08/18 05:04:30;;;;;;;14.10;12.80;;;;;;;27.08;73.02;100305.79;84639;1330;22592;-72
2022/08/18 05:06:39;;;;;;;14.60;13.20;;;;;;;27.44;70.44;100303.25;84722;1327;22767;-71
2022/08/18 05:08:48;;;;;;;15.00;12.20;;;;;;;27.42;68.73;100303.65;84668;1321;22580;-71
2022/08/18 05:10:58;;;;;;;16.30;13.90;;;;;;;27.11;67.50;100304.10;84652;1329;25379;-72
2022/08/18 05:13:06;;;;;;;20.30;16.20;;;;;;;26.73;67.53;100303.59;84702;1325;22893;-72
2022/08/18 05:15:16;;;;;;;26.90;17.70;;;;;;;26.33;67.46;100305.20;84711;1329;22734;-73
2022/08/18 05:17:27;;;;;;;27.00;16.50;;;;;;;25.98;68.10;100305.39;84719;1329;25319;-72
2022/08/18 05:19:36;;;;;;;17.40;15.50;;;;;;;25.71;68.54;100307.80;84707;1327;22899;-72
2022/08/18 05:21:45;;;;;;;20.10;16.40;;;;;;;25.55;69.14;100306.80;84723;1329;23992;-72
2022/08/18 05:23:54;;;;;;;25.30;17.10;;;;;;;25.40;69.40;100306.58;84656;1329;25082;-71
2022/08/18 05:26:05;;;;;;;20.00;15.00;;;;;;;25.33;69.82;100304.39;84643;1330;25634;-73
2022/08/18 05:28:14;;;;;;;18.90;16.70;;;;;;;25.30;69.82;100309.71;84659;1329;25427;-73
2022/08/18 05:30:24;;;;;;;18.90;16.20;;;;;;;25.27;69.81;100311.46;84671;1327;22713;-73
2022/08/18 05:32:36;;;;;;;22.20;15.40;;;;;;;25.30;70.26;100309.21;84710;1328;22580;-72
2022/08/18 05:34:47;;;;;;;24.50;18.10;;;;;;;25.45;70.76;100310.33;84717;1328;25293;-72
2022/08/18 05:37:04;;;;;;;18.80;16.00;;;;;;;26.04;71.05;100313.18;84725;1324;24344;-72
2022/08/18 05:39:19;;;;;;;25.30;17.40;;;;;;;26.90;69.32;100315.45;84730;1321;22783;-72
2022/08/18 05:41:31;;;;;;;19.80;16.80;;;;;;;27.74;67.79;100309.61;84658;1327;22600;-72
2022/08/18 05:43:40;;;;;;;18.20;16.00;;;;;;;28.58;65.78;100308.70;84682;1328;22654;-72
2022/08/18 05:45:50;;;;;;;31.00;17.00;;;;;;;29.32;63.29;100308.91;84703;1326;24855;-72
2022/08/18 05:48:01;;;;;;;22.30;16.70;;;;;;;30.06;61.14;100311.42;84699;1330;25520;-73
2022/08/18 05:50:15;;;;;;;23.40;15.60;;;;;;;30.78;58.45;100313.93;84639;1329;22580;-73
2022/08/18 05:52:28;;;;;;;17.10;15.00;;;;;;;31.49;56.83;100314.64;84718;1323;22839;-71
2022/08/18 05:57:10;;;;;;;18.90;14.70;;;;;;;32.88;52.73;100309.46;84724;1330;22583;-72
2022/08/18 05:59:26;;;;;;;16.90;14.10;;;;;;;33.48;50.96;100307.27;84716;1329;25038;-72
2022/08/18 06:01:40;;;;;;;23.00;14.70;;;;;;;34.01;49.14;100305.24;84738;1329;25313;-73
2022/08/18 06:03:50;;;;;;;21.20;14.40;;;;;;;34.39;46.94;100307.02;84693;1329;22803;-73
2022/08/18 06:06:01;;;;;;;16.90;13.80;;;;;;;34.60;45.57;100305.30;84731;1329;22623;-71
2022/08/18 06:08:12;;;;;;;18.30;13.40;;;;;;;34.88;45.15;100307.98;84646;1330;22585;-72
2022/08/18 06:10:22;;;;;;;15.70;12.90;;;;;;;35.33;45.36;100305.70;84646;1330;24223;-71
2022/08/18 06:12:33;;;;;;;18.00;13.00;;;;;;;35.84;43.88;100303.46;84663;1327;22600;-71
2022/08/18 06:14:43;;;;;;;18.00;13.30;;;;;;;36.31;42.60;100303.73;84654;1328;23920;-71
2022/08/18 06:17:00;;;;;;;22.50;12.90;;;;;;;36.64;41.24;100305.23;84660;1329;24254;-72
2022/08/18 06:19:19;;;;;;;14.20;12.50;;;;;;;37.10;40.37;100303.41;84732;1325;22593;-73
2022/08/18 06:21:38;;;;;;;12.80;11.80;;;;;;;37.55;39.86;100309.02;84732;1329;22620;-72
2022/08/18 06:23:52;;;;;;;14.60;12.00;;;;;;;37.72;38.43;100312.67;84741;1326;22652;-71
2022/08/18 06:26:12;;;;;;;17.00;12.20;;;;;;;37.98;37.98;100314.31;84723;1329;22587;-72
2022/08/18 06:28:21;;;;;;;16.80;11.10;;;;;;;38.21;37.53;100314.78;84678;1329;24265;-71
2022/08/18 06:30:34;;;;;;;;;;;;;;;38.54;36.45;100313.61;84716;1328;22662;-71
2022/08/18 06:33:05;;;;;;;13.80;12.10;;;;;;;38.64;35.40;100307.23;84727;1327;25278;-71
2022/08/18 06:35:23;;;;;;;14.10;11.90;;;;;;;38.74;34.96;100307.36;84706;1328;22619;-71
2022/08/18 06:38:37;;;;;;;18.20;12.50;;;;;;;38.83;34.65;100308.31;84717;1329;25265;-72
2022/08/18 06:40:05;;;;;;;13.20;11.90;;;;;;;38.90;34.39;100313.54;84662;1330;23052;-72
2022/08/18 06:42:15;;;;;;;15.50;11.60;;;;;;;38.98;33.72;100316.96;84739;1328;22782;-73
2022/08/18 06:44:30;;;;;;;11.40;10.50;;;;;;;39.00;34.00;100318.69;84688;1326;22584;-71
2022/08/18 06:46:45;;;;;;;10.90;9.80;;;;;;;39.25;32.98;100322.83;84706;1327;22854;-73
2022/08/18 06:48:58;;;;;;;11.80;10.30;;;;;;;39.48;32.60;100322.54;84717;1327;24484;-73
2022/08/18 06:51:08;;;;;;;13.30;10.80;;;;;;;39.71;32.12;100320.78;84721;1321;22596;-70
2022/08/18 06:53:17;;;;;;;13.50;12.10;;;;;;;39.80;32.00;100324.67;84717;1329;23048;-71
2022/08/18 06:55:35;;;;;;;15.50;10.50;;;;;;;39.94;30.81;100325.64;84702;1327;25719;-71
2022/08/18 06:57:57;;;;;;;12.00;10.80;;;;;;;39.74;30.94;100323.29;84691;1327;24641;-71
2022/08/18 07:00:21;;;;;;;12.60;11.30;;;;;;;39.45;30.90;100326.58;84732;1329;26553;-71
2022/08/18 07:02:50;;;;;;;15.10;12.20;;;;;;;39.12;30.92;100327.51;84714;1328;25262;-73
2022/08/18 07:05:08;;;;;;;13.50;11.80;;;;;;;38.70;31.38;100327.43;84703;1328;22606;-76
2022/08/18 07:07:29;;;;;;;19.40;11.50;;;;;;;38.07;32.53;100329.39;84741;1329;22638;-75
2022/08/18 07:09:38;;;;;;;11.90;10.60;;;;;;;37.48;33.40;100332.86;84671;1329;22787;-74
2022/08/18 07:12:01;;;;;;;11.50;10.20;;;;;;;37.09;33.43;100330.70;84656;1329;24167;-72
2022/08/18 07:14:23;;;;;;;12.30;10.90;;;;;;;36.75;33.59;100332.18;84719;1330;22595;-73
2022/08/18 07:16:35;;;;;;;14.70;9.40;;;;;;;36.29;34.08;100332.92;84728;1330;22607;-72
2022/08/18 07:18:45;;;;;;;9.80;8.60;;;;;;;36.42;34.87;100338.35;84723;1329;25314;-72
2022/08/18 07:20:59;;;;;;;10.50;8.60;;;;;;;36.79;34.31;100338.52;84668;1325;22764;-73
2022/08/18 07:23:09;;;;;;;9.10;8.20;;;;;;;37.31;34.18;100341.50;84707;1329;22664;-72
2022/08/18 07:25:23;;;;;;;13.80;8.60;;;;;;;37.75;33.18;100338.76;84708;1330;22815;-72
2022/08/18 07:27:50;;;;;;;10.90;8.40;;;;;;;38.11;32.24;100340.66;84725;1329;22615;-70
2022/08/18 07:30:09;;;;;;;9.90;7.10;;;;;;;38.40;31.64;100338.16;84706;1329;24261;-72
2022/08/18 07:32:19;;;;;;;10.60;7.00;;;;;;;38.58;31.32;100336.87;84607;1330;22586;-72
2022/08/18 07:34:36;;;;;;;8.00;6.70;;;;;;;38.80;30.55;100337.76;84711;1325;22838;-72
2022/08/18 07:36:47;;;;;;;11.50;6.50;;;;;;;38.98;30.29;100330.40;84721;1330;22596;-73
2022/08/18 07:38:58;;;;;;;7.60;6.80;;;;;;;39.23;30.29;100332.64;84714;1329;22584;-73
2022/08/18 07:41:13;;;;;;;11.90;7.40;;;;;;;39.52;29.59;100335.95;84610;1330;24310;-73
2022/08/18 07:43:26;;;;;;;10.70;7.10;;;;;;;39.60;29.04;100331.97;84725;1330;24342;-73
2022/08/18 07:45:39;;;;;;;8.70;7.90;;;;;;;39.67;29.26;100327.39;84729;1330;23054;-72
2022/08/18 07:47:52;;;;;;;10.10;8.00;;;;;;;39.86;29.12;100328.82;84658;1329;22587;-72
2022/08/18 07:50:01;;;;;;;7.30;6.70;;;;;;;40.17;29.34;100328.72;84651;1329;23969;-72
2022/08/18 07:52:14;;;;;;;10.50;6.60;;;;;;;40.38;28.97;100327.66;84691;1329;22609;-72
2022/08/18 07:54:32;;;;;;;9.40;6.90;;;;;;;40.59;28.87;100329.09;84683;1332;22623;-73
2022/08/18 07:56:41;;;;;;;;;;;;;;;40.88;27.58;100332.61;84699;1328;23183;-72
2022/08/18 07:58:54;;;;;;;8.40;5.80;;;;;;;40.92;27.61;100332.02;84715;1327;22759;-73
2022/08/18 08:01:05;;;;;;;6.40;5.60;;;;;;;41.12;27.27;100328.59;84699;1330;23889;-72
2022/08/18 08:03:26;;;;;;;6.70;6.10;;;;;;;41.24;26.64;100332.27;84714;1328;22618;-72
2022/08/18 08:05:45;;;;;;;11.20;6.30;;;;;;;41.38;26.52;100332.66;84663;1329;22585;-72
2022/08/18 08:07:56;;;;;;;8.10;6.00;;;;;;;41.46;25.77;100332.04;84660;1329;22626;-73
2022/08/18 08:10:28;;;;;;;5.90;5.20;;;;;;;41.38;25.97;100337.69;84695;1330;25981;-73
2022/08/18 08:12:43;;;;;;;7.20;5.50;;;;;;;41.36;26.16;100333.63;84712;1330;25262;-73
2022/08/18 08:14:54;;;;;;;6.50;5.90;;;;;;;41.55;26.06;100339.95;84664;1329;22614;-73
2022/08/18 08:17:10;;;;;;;7.00;5.90;;;;;;;41.68;25.90;100342.73;84663;1330;22942;-72
2022/08/18 08:19:39;;;;;;;7.00;5.80;;;;;;;41.78;25.93;100346.77;84711;1332;24402;-72
2022/08/18 08:21:53;;;;;;;10.80;6.30;;;;;;;41.91;25.55;100343.66;84682;1330;22583;-72
2022/08/18 08:24:10;;;;;;;12.10;5.60;;;;;;;42.08;25.17;100349.25;84709;1329;24344;-74
2022/08/18 08:26:31;;;;;;;9.50;6.80;;;;;;;42.27;24.95;100343.33;84736;1329;24341;-74
2022/08/18 08:28:46;;;;;;;6.30;5.70;;;;;;;42.43;24.94;100342.89;84718;1329;25436;-73
2022/08/18 08:31:07;;;;;;;7.60;5.50;;;;;;;42.58;24.43;100343.42;84715;1330;25469;-73
2022/08/18 08:33:23;;;;;;;7.10;5.70;;;;;;;42.76;25.18;100346.25;84667;1330;22755;-73
2022/08/18 08:35:39;;;;;;;8.50;6.00;;;;;;;42.99;24.37;100349.03;84654;1330;24270;-73
2022/08/18 08:37:53;;;;;;;6.50;5.90;;;;;;;43.02;23.69;100346.86;84714;1331;22600;-73
2022/08/18 08:40:07;;;;;;;8.20;5.80;;;;;;;42.75;24.10;100350.15;84659;1329;22602;-74
2022/08/18 08:42:20;;;;;;;6.40;5.40;;;;;;;42.68;24.59;100349.26;84694;1328;22583;-73
2022/08/18 08:44:32;;;;;;;11.00;6.30;;;;;;;42.72;23.98;100354.66;84735;1330;22808;-73
2022/08/18 08:46:47;;;;;;;6.30;5.80;;;;;;;42.58;23.60;100351.36;84747;1330;22613;-73
2022/08/18 08:48:59;;;;;;;6.90;5.90;;;;;;;42.41;24.12;100351.46;84708;1325;22584;-73
2022/08/18 08:51:17;;;;;;;6.70;6.00;;;;;;;42.52;24.16;100347.58;84669;1330;22616;-72
2022/08/18 08:53:27;;;;;;;6.30;5.70;;;;;;;42.64;23.79;100340.89;84667;1330;22603;-72
2022/08/18 08:55:42;;;;;;;6.70;5.60;;;;;;;42.58;23.78;100344.66;84709;1328;22745;-72
2022/08/18 08:57:54;;;;;;;7.40;6.20;;;;;;;42.51;23.83;100344.98;84687;1329;23968;-73
2022/08/18 09:00:05;;;;;;;11.80;6.80;;;;;;;42.50;24.25;100342.58;84693;1329;24309;-73
2022/08/18 09:02:39;;;;;;;7.40;6.00;;;;;;;42.64;24.05;100338.45;84652;1329;22607;-73
2022/08/18 09:04:52;;;;;;;7.90;6.00;;;;;;;42.81;24.63;100333.94;84666;1321;24393;-74
2022/08/18 09:07:13;;;;;;;5.80;5.40;;;;;;;42.96;24.31;100331.91;84728;1331;25336;-73
2022/08/18 09:09:49;;;;;;;9.20;5.80;;;;;;;43.00;23.95;100331.33;84687;1330;25436;-73
2022/08/18 09:12:25;;;;;;;6.60;5.90;;;;;;;42.96;23.86;100329.94;84693;1329;22730;-77
2022/08/18 09:15:08;;;;;;;8.20;5.30;;;;;;;42.84;23.37;100325.73;84696;1329;23017;-75
2022/08/18 09:17:34;;;;;;;6.90;6.30;;;;;;;42.63;23.52;100323.48;84706;1330;22576;-72
2022/08/18 09:22:22;;;;;;;8.40;5.30;;;;;;;42.47;24.22;100311.71;82017;1372;545229;-73
2022/08/18 09:24:38;;;;;;;13.50;6.60;;;;;;;42.55;24.12;100314.46;84301;1340;22658;-74
2022/08/18 09:26:52;;;;;;;8.20;6.90;;;;;;;42.59;23.79;100310.14;84316;1339;22602;-73
2022/08/18 09:29:13;;;;;;;9.60;6.50;;;;;;;42.49;23.95;100312.26;84273;1340;22601;-73
2022/08/18 09:31:22;;;;;;;9.50;6.40;;;;;;;42.37;24.11;100316.19;84268;1339;24164;-73
2022/08/18 09:34:03;;;;;;;6.70;6.10;;;;;;;42.02;23.06;100309.19;84279;1340;23792;-73
2022/08/18 09:36:31;;;;;;;8.40;6.40;;;;;;;41.26;24.82;100308.07;83820;1338;801236;-73
2022/08/18 09:41:31;;;;;;;7.70;6.90;;;;;;;40.48;26.24;100307.48;84656;1330;23862;-72
2022/08/18 09:43:53;;;;;;;10.90;6.30;;;;;;;40.10;27.31;100310.04;84607;1332;22796;-73
2022/08/18 09:46:03;;;;;;;8.40;6.60;;;;;;;39.71;26.66;100309.03;84612;1334;22592;-72
2022/08/18 09:48:30;;;;;;;10.30;7.40;;;;;;;39.22;27.22;100310.93;84606;1331;25338;-73
2022/08/18 09:50:57;;;;;;;11.30;7.50;;;;;;;38.70;27.76;100308.98;84676;1332;22600;-72
2022/08/18 09:53:35;;;;;;;9.90;7.40;;;;;;;38.39;28.51;100306.85;84686;1331;22587;-72
2022/08/18 09:55:58;;;;;;;8.40;7.10;;;;;;;38.01;28.91;100301.34;84661;1330;23054;-73
2022/08/18 09:58:27;;;;;;;11.60;6.40;;;;;;;37.78;29.26;100304.46;84670;1331;24346;-70
2022/08/18 10:00:37;;;;;;;7.40;6.70;;;;;;;37.59;29.64;100305.06;84893;1324;22595;-72
2022/08/18 10:03:25;;;;;;;;;;;;;;;37.29;29.37;100303.19;84817;1327;22567;-72
2022/08/18 10:05:34;;;;;;;10.80;6.60;;;;;;;36.88;29.77;100304.69;84804;1327;23907;-71
2022/08/18 10:07:41;;;;;;;;;;;;;;;36.61;29.88;100302.27;84828;1327;22601;-71
2022/08/18 10:10:15;;;;;;;7.10;6.50;;;;;;;36.35;30.38;100305.86;84887;1326;23912;-73
2022/08/18 10:12:51;;;;;;;7.50;6.60;;;;;;;36.21;30.69;100304.69;84825;1327;22606;-72
2022/08/18 10:15:13;;;;;;;8.70;7.20;;;;;;;36.07;30.84;100301.95;84782;1325;22828;-72
2022/08/18 10:17:38;;;;;;;7.10;6.40;;;;;;;35.96;31.17;100303.27;84813;1327;25993;-73
2022/08/18 10:19:56;;;;;;;6.70;6.10;;;;;;;35.86;31.61;100301.81;84737;1327;22735;-73
2022/08/18 10:22:10;;;;;;;8.10;5.90;;;;;;;35.80;31.88;100308.05;84880;1324;22592;-72
2022/08/18 10:24:20;;;;;;;7.20;6.50;;;;;;;35.76;31.97;100306.56;84831;1325;22648;-71